sensor_id;sensor_type;location;lat;lon;timestamp;pressure;altitude;pressure_sealevel;temperature;humidity
76592;BME280;65481;47.600;19.682;2023-04-22T00:02:45;100062.91;;;9.65;83.64
76592;BME280;65481;47.600;19.682;2023-04-22T00:07:47;100056.25;;;9.74;83.52
76592;BME280;65481;47.600;19.682;2023-04-22T00:12:47;100059.25;;;9.78;83.50
76592;BME280;65481;47.600;19.682;2023-04-22T00:17:48;100062.22;;;9.69;84.03
76592;BME280;65481;47.600;19.682;2023-04-22T00:22:49;100063.66;;;9.53;85.22
76592;BME280;65481;47.600;19.682;2023-04-22T00:27:49;100056.72;;;9.40;85.82
76592;BME280;65481;47.600;19.682;2023-04-22T00:32:50;100056.47;;;9.30;86.14
76592;BME280;65481;47.600;19.682;2023-04-22T00:37:50;100052.91;;;9.24;85.53
76592;BME280;65481;47.600;19.682;2023-04-22T00:42:51;100053.44;;;9.15;85.67
76592;BME280;65481;47.600;19.682;2023-04-22T00:47:52;100043.75;;;8.97;85.97
76592;BME280;65481;47.600;19.682;2023-04-22T00:52:52;100048.16;;;8.84;86.56
76592;BME280;65481;47.600;19.682;2023-04-22T00:57:53;100050.28;;;8.75;86.53
76592;BME280;65481;47.600;19.682;2023-04-22T01:02:55;100046.38;;;8.78;86.75
76592;BME280;65481;47.600;19.682;2023-04-22T01:07:56;100053.03;;;8.99;85.40
76592;BME280;65481;47.600;19.682;2023-04-22T01:12:57;100049.81;;;8.97;85.32
76592;BME280;65481;47.600;19.682;2023-04-22T01:17:58;100046.63;;;8.76;86.01
76592;BME280;65481;47.600;19.682;2023-04-22T01:23:02;100054.78;;;8.68;85.49
76592;BME280;65481;47.600;19.682;2023-04-22T01:28:09;100058.97;;;8.57;85.22
76592;BME280;65481;47.600;19.682;2023-04-22T01:33:10;100058.22;;;8.50;84.52
76592;BME280;65481;47.600;19.682;2023-04-22T01:38:11;100073.50;;;8.60;83.48
76592;BME280;65481;47.600;19.682;2023-04-22T01:43:12;100064.22;;;8.57;83.27
76592;BME280;65481;47.600;19.682;2023-04-22T01:48:12;100057.84;;;8.46;83.23
76592;BME280;65481;47.600;19.682;2023-04-22T01:53:13;100058.25;;;8.43;82.76
76592;BME280;65481;47.600;19.682;2023-04-22T01:58:13;100059.56;;;8.34;82.86
76592;BME280;65481;47.600;19.682;2023-04-22T02:03:14;100056.25;;;8.20;82.76
76592;BME280;65481;47.600;19.682;2023-04-22T02:08:15;100065.84;;;8.08;83.20
76592;BME280;65481;47.600;19.682;2023-04-22T02:13:15;100066.06;;;8.06;82.45
76592;BME280;65481;47.600;19.682;2023-04-22T02:18:15;100063.94;;;7.96;84.46
76592;BME280;65481;47.600;19.682;2023-04-22T02:23:17;100059.56;;;7.83;85.45
76592;BME280;65481;47.600;19.682;2023-04-22T02:28:18;100061.28;;;7.71;86.83
76592;BME280;65481;47.600;19.682;2023-04-22T02:33:18;100055.91;;;7.59;88.61
76592;BME280;65481;47.600;19.682;2023-04-22T02:38:19;100056.16;;;7.51;91.92
76592;BME280;65481;47.600;19.682;2023-04-22T02:43:19;100066.28;;;7.47;93.44
76592;BME280;65481;47.600;19.682;2023-04-22T02:48:20;100065.91;;;7.43;94.90
76592;BME280;65481;47.600;19.682;2023-04-22T02:53:20;100066.16;;;7.28;95.82
76592;BME280;65481;47.600;19.682;2023-04-22T02:58:21;100066.03;;;7.17;96.77
76592;BME280;65481;47.600;19.682;2023-04-22T03:03:21;100068.47;;;7.11;96.81
76592;BME280;65481;47.600;19.682;2023-04-22T03:08:22;100078.56;;;7.08;98.46
76592;BME280;65481;47.600;19.682;2023-04-22T03:13:22;100072.97;;;6.97;98.92
76592;BME280;65481;47.600;19.682;2023-04-22T03:18:23;100070.63;;;6.76;99.99
76592;BME280;65481;47.600;19.682;2023-04-22T03:23:23;100064.00;;;6.53;100.00
76592;BME280;65481;47.600;19.682;2023-04-22T03:28:24;100066.03;;;6.51;100.00
76592;BME280;65481;47.600;19.682;2023-04-22T03:33:24;100074.31;;;6.55;100.00
76592;BME280;65481;47.600;19.682;2023-04-22T03:38:25;100079.53;;;6.61;100.00
76592;BME280;65481;47.600;19.682;2023-04-22T03:43:26;100079.69;;;6.66;100.00
76592;BME280;65481;47.600;19.682;2023-04-22T03:48:27;100085.34;;;6.70;99.91
76592;BME280;65481;47.600;19.682;2023-04-22T03:53:29;100086.38;;;6.69;99.62
76592;BME280;65481;47.600;19.682;2023-04-22T03:58:29;100091.63;;;6.69;99.30
76592;BME280;65481;47.600;19.682;2023-04-22T04:03:30;100093.84;;;6.65;98.81
76592;BME280;65481;47.600;19.682;2023-04-22T04:08:31;100086.75;;;6.73;98.34
76592;BME280;65481;47.600;19.682;2023-04-22T04:13:31;100095.81;;;6.84;97.78
76592;BME280;65481;47.600;19.682;2023-04-22T04:18:32;100100.22;;;6.96;96.83
76592;BME280;65481;47.600;19.682;2023-04-22T04:23:33;100100.75;;;7.12;96.52
76592;BME280;65481;47.600;19.682;2023-04-22T04:28:33;100106.59;;;7.21;97.08
76592;BME280;65481;47.600;19.682;2023-04-22T04:33:35;100114.00;;;7.31;97.10
76592;BME280;65481;47.600;19.682;2023-04-22T04:38:36;100110.13;;;7.40;97.09
76592;BME280;65481;47.600;19.682;2023-04-22T04:43:37;100113.91;;;7.57;96.14
76592;BME280;65481;47.600;19.682;2023-04-22T04:48:39;100124.47;;;7.76;95.06
76592;BME280;65481;47.600;19.682;2023-04-22T04:53:41;100110.63;;;7.94;93.58
76592;BME280;65481;47.600;19.682;2023-04-22T04:58:41;100123.59;;;8.14;92.28
76592;BME280;65481;47.600;19.682;2023-04-22T05:03:42;100127.75;;;8.29;91.95
76592;BME280;65481;47.600;19.682;2023-04-22T05:08:42;100130.53;;;8.59;91.67
76592;BME280;65481;47.600;19.682;2023-04-22T05:13:43;100137.09;;;9.13;90.24
76592;BME280;65481;47.600;19.682;2023-04-22T05:18:43;100136.50;;;9.90;86.91
76592;BME280;65481;47.600;19.682;2023-04-22T05:23:44;100140.75;;;10.45;81.86
76592;BME280;65481;47.600;19.682;2023-04-22T05:28:44;100132.31;;;10.96;78.47
76592;BME280;65481;47.600;19.682;2023-04-22T05:33:45;100128.84;;;11.48;74.26
76592;BME280;65481;47.600;19.682;2023-04-22T05:38:46;100130.44;;;12.41;70.13
76592;BME280;65481;47.600;19.682;2023-04-22T05:43:46;100140.84;;;12.87;66.85
76592;BME280;65481;47.600;19.682;2023-04-22T05:48:47;100143.00;;;13.13;63.53
76592;BME280;65481;47.600;19.682;2023-04-22T05:53:48;100153.47;;;13.42;62.33
76592;BME280;65481;47.600;19.682;2023-04-22T05:58:49;100152.38;;;13.98;60.96
76592;BME280;65481;47.600;19.682;2023-04-22T06:03:49;100149.84;;;14.46;59.08
76592;BME280;65481;47.600;19.682;2023-04-22T06:08:50;100150.38;;;14.91;57.20
76592;BME280;65481;47.600;19.682;2023-04-22T06:13:51;100152.75;;;15.56;55.39
76592;BME280;65481;47.600;19.682;2023-04-22T06:18:52;100156.03;;;16.10;53.53
76592;BME280;65481;47.600;19.682;2023-04-22T06:23:52;100158.41;;;16.42;52.33
76592;BME280;65481;47.600;19.682;2023-04-22T06:28:53;100164.66;;;17.08;51.38
76592;BME280;65481;47.600;19.682;2023-04-22T06:33:55;100162.81;;;17.99;48.94
76592;BME280;65481;47.600;19.682;2023-04-22T06:38:56;100160.28;;;18.48;46.57
76592;BME280;65481;47.600;19.682;2023-04-22T06:43:56;100168.03;;;19.41;44.54
76592;BME280;65481;47.600;19.682;2023-04-22T06:48:57;100165.81;;;19.48;42.42
76592;BME280;65481;47.600;19.682;2023-04-22T06:53:57;100173.91;;;20.34;42.00
76592;BME280;65481;47.600;19.682;2023-04-22T06:58:58;100164.53;;;21.06;39.87
76592;BME280;65481;47.600;19.682;2023-04-22T07:03:58;100160.41;;;21.73;38.24
76592;BME280;65481;47.600;19.682;2023-04-22T07:08:59;100166.25;;;21.75;37.03
76592;BME280;65481;47.600;19.682;2023-04-22T07:13:59;100161.75;;;22.39;35.86
76592;BME280;65481;47.600;19.682;2023-04-22T07:19:00;100162.59;;;22.89;34.00
76592;BME280;65481;47.600;19.682;2023-04-22T07:24:00;100176.00;;;23.38;32.94
76592;BME280;65481;47.600;19.682;2023-04-22T07:29:00;100168.41;;;23.84;31.57
76592;BME280;65481;47.600;19.682;2023-04-22T07:34:01;100174.97;;;24.30;29.35
76592;BME280;65481;47.600;19.682;2023-04-22T07:39:02;100167.84;;;25.03;27.03
76592;BME280;65481;47.600;19.682;2023-04-22T07:44:02;100169.19;;;25.18;27.10
76592;BME280;65481;47.600;19.682;2023-04-22T07:49:03;100169.84;;;24.85;26.22
76592;BME280;65481;47.600;19.682;2023-04-22T07:54:03;100166.50;;;25.18;25.58
76592;BME280;65481;47.600;19.682;2023-04-22T07:59:04;100169.31;;;25.22;25.59
76592;BME280;65481;47.600;19.682;2023-04-22T08:04:05;100177.38;;;25.52;25.68
76592;BME280;65481;47.600;19.682;2023-04-22T08:09:06;100174.88;;;26.02;25.01
76592;BME280;65481;47.600;19.682;2023-04-22T08:14:07;100179.47;;;25.89;24.44
76592;BME280;65481;47.600;19.682;2023-04-22T08:19:07;100179.75;;;25.53;24.89
76592;BME280;65481;47.600;19.682;2023-04-22T08:24:08;100175.88;;;25.42;24.88
76592;BME280;65481;47.600;19.682;2023-04-22T08:29:08;100172.09;;;25.77;24.75
76592;BME280;65481;47.600;19.682;2023-04-22T08:34:09;100184.63;;;25.94;24.35
76592;BME280;65481;47.600;19.682;2023-04-22T08:39:10;100173.06;;;26.06;24.42
76592;BME280;65481;47.600;19.682;2023-04-22T08:44:11;100173.81;;;25.94;24.11
76592;BME280;65481;47.600;19.682;2023-04-22T08:49:17;100177.66;;;26.26;23.98
76592;BME280;65481;47.600;19.682;2023-04-22T08:54:18;100180.53;;;26.92;22.99
76592;BME280;65481;47.600;19.682;2023-04-22T08:59:19;100169.03;;;27.36;23.15
76592;BME280;65481;47.600;19.682;2023-04-22T09:04:21;100169.13;;;27.11;23.66
76592;BME280;65481;47.600;19.682;2023-04-22T09:09:22;100166.31;;;26.95;22.78
76592;BME280;65481;47.600;19.682;2023-04-22T09:14:24;100173.19;;;26.80;22.04
76592;BME280;65481;47.600;19.682;2023-04-22T09:19:25;100163.16;;;26.93;22.61
76592;BME280;65481;47.600;19.682;2023-04-22T09:24:26;100172.69;;;27.28;21.35
76592;BME280;65481;47.600;19.682;2023-04-22T09:29:29;100162.59;;;27.53;20.79
76592;BME280;65481;47.600;19.682;2023-04-22T09:34:31;100154.34;;;27.78;21.38
76592;BME280;65481;47.600;19.682;2023-04-22T09:39:31;100152.34;;;27.91;20.12
76592;BME280;65481;47.600;19.682;2023-04-22T09:44:32;100157.78;;;27.62;20.69
76592;BME280;65481;47.600;19.682;2023-04-22T09:49:37;100151.38;;;27.55;20.84
76592;BME280;65481;47.600;19.682;2023-04-22T09:54:38;100140.94;;;27.69;20.51
76592;BME280;65481;47.600;19.682;2023-04-22T09:59:38;100136.47;;;27.61;19.34
76592;BME280;65481;47.600;19.682;2023-04-22T10:04:39;100138.94;;;27.66;19.83
76592;BME280;65481;47.600;19.682;2023-04-22T10:09:40;100134.09;;;27.18;21.13
76592;BME280;65481;47.600;19.682;2023-04-22T10:14:40;100136.47;;;27.61;21.21
76592;BME280;65481;47.600;19.682;2023-04-22T10:19:41;100127.69;;;27.51;20.24
76592;BME280;65481;47.600;19.682;2023-04-22T10:24:46;100120.47;;;27.56;19.88
76592;BME280;65481;47.600;19.682;2023-04-22T10:29:46;100111.41;;;27.80;19.92
76592;BME280;65481;47.600;19.682;2023-04-22T10:34:48;100120.66;;;27.63;21.25
76592;BME280;65481;47.600;19.682;2023-04-22T10:40:06;100111.63;;;27.59;20.38
76592;BME280;65481;47.600;19.682;2023-04-22T10:45:12;100109.22;;;27.70;19.57
76592;BME280;65481;47.600;19.682;2023-04-22T10:50:24;100106.94;;;27.15;19.88
76592;BME280;65481;47.600;19.682;2023-04-22T10:55:49;100104.94;;;27.85;20.13
76592;BME280;65481;47.600;19.682;2023-04-22T11:00:53;100105.81;;;27.89;19.29
76592;BME280;65481;47.600;19.682;2023-04-22T11:06:15;100104.63;;;28.34;19.26
76592;BME280;65481;47.600;19.682;2023-04-22T11:11:17;100105.25;;;28.28;20.04
76592;BME280;65481;47.600;19.682;2023-04-22T11:16:20;100098.66;;;27.96;19.49
76592;BME280;65481;47.600;19.682;2023-04-22T11:21:21;100101.56;;;27.31;20.20
76592;BME280;65481;47.600;19.682;2023-04-22T11:26:42;100098.97;;;27.63;19.84
76592;BME280;65481;47.600;19.682;2023-04-22T11:31:45;100089.91;;;27.87;19.87
76592;BME280;65481;47.600;19.682;2023-04-22T11:36:46;100091.81;;;27.42;20.31
76592;BME280;65481;47.600;19.682;2023-04-22T11:41:47;100092.91;;;27.25;19.88
76592;BME280;65481;47.600;19.682;2023-04-22T11:46:47;100079.47;;;26.88;19.96
76592;BME280;65481;47.600;19.682;2023-04-22T11:51:55;100088.25;;;26.97;20.12
76592;BME280;65481;47.600;19.682;2023-04-22T11:56:56;100086.69;;;26.96;20.44
76592;BME280;65481;47.600;19.682;2023-04-22T12:01:56;100083.69;;;27.42;20.28
76592;BME280;65481;47.600;19.682;2023-04-22T12:06:56;100072.75;;;27.67;20.02
76592;BME280;65481;47.600;19.682;2023-04-22T12:11:57;100073.25;;;27.57;20.34
76592;BME280;65481;47.600;19.682;2023-04-22T12:16:57;100075.91;;;27.12;20.19
76592;BME280;65481;47.600;19.682;2023-04-22T12:21:58;100081.72;;;27.27;20.12
76592;BME280;65481;47.600;19.682;2023-04-22T12:26:58;100066.25;;;27.27;19.82
76592;BME280;65481;47.600;19.682;2023-04-22T12:31:59;100069.66;;;27.24;19.93
76592;BME280;65481;47.600;19.682;2023-04-22T12:37:00;100060.63;;;26.79;19.60
76592;BME280;65481;47.600;19.682;2023-04-22T12:42:00;100057.09;;;27.03;19.09
76592;BME280;65481;47.600;19.682;2023-04-22T12:47:01;100051.19;;;26.85;19.17
76592;BME280;65481;47.600;19.682;2023-04-22T12:52:01;100042.97;;;26.82;19.63
76592;BME280;65481;47.600;19.682;2023-04-22T12:57:02;100043.47;;;27.00;20.43
76592;BME280;65481;47.600;19.682;2023-04-22T13:02:02;100040.69;;;27.12;20.29
76592;BME280;65481;47.600;19.682;2023-04-22T13:07:03;100035.81;;;26.77;19.44
76592;BME280;65481;47.600;19.682;2023-04-22T13:12:04;100028.41;;;26.74;19.64
76592;BME280;65481;47.600;19.682;2023-04-22T13:17:04;100018.63;;;26.82;19.28
76592;BME280;65481;47.600;19.682;2023-04-22T13:22:05;100009.19;;;26.38;19.01
76592;BME280;65481;47.600;19.682;2023-04-22T13:27:06;100019.91;;;26.35;18.75
76592;BME280;65481;47.600;19.682;2023-04-22T13:32:07;100015.56;;;26.58;19.22
76592;BME280;65481;47.600;19.682;2023-04-22T13:37:07;100010.22;;;26.21;19.24
76592;BME280;65481;47.600;19.682;2023-04-22T13:42:09;100004.47;;;25.85;19.45
76592;BME280;65481;47.600;19.682;2023-04-22T13:47:09;100008.88;;;26.15;19.43
76592;BME280;65481;47.600;19.682;2023-04-22T13:52:10;100007.41;;;26.18;19.73
76592;BME280;65481;47.600;19.682;2023-04-22T13:57:10;100006.28;;;26.06;21.33
76592;BME280;65481;47.600;19.682;2023-04-22T14:02:11;100002.81;;;26.18;21.13
76592;BME280;65481;47.600;19.682;2023-04-22T14:07:11;99993.53;;;25.94;20.96
76592;BME280;65481;47.600;19.682;2023-04-22T14:12:12;99995.25;;;26.11;20.36
76592;BME280;65481;47.600;19.682;2023-04-22T14:17:13;99986.66;;;25.84;20.40
76592;BME280;65481;47.600;19.682;2023-04-22T14:22:13;99992.38;;;24.91;21.44
76592;BME280;65481;47.600;19.682;2023-04-22T14:27:14;99997.03;;;24.82;21.86
76592;BME280;65481;47.600;19.682;2023-04-22T14:32:14;99988.75;;;24.14;22.54
76592;BME280;65481;47.600;19.682;2023-04-22T14:37:15;99988.28;;;23.73;22.57
76592;BME280;65481;47.600;19.682;2023-04-22T14:42:16;99986.47;;;23.12;22.67
76592;BME280;65481;47.600;19.682;2023-04-22T14:47:18;99995.66;;;23.03;22.51
76592;BME280;65481;47.600;19.682;2023-04-22T14:52:19;99980.66;;;23.67;22.86
76592;BME280;65481;47.600;19.682;2023-04-22T14:57:19;99986.47;;;23.86;23.30
76592;BME280;65481;47.600;19.682;2023-04-22T15:02:20;99988.25;;;23.82;22.61
76592;BME280;65481;47.600;19.682;2023-04-22T15:07:20;99982.13;;;23.55;22.49
76592;BME280;65481;47.600;19.682;2023-04-22T15:12:21;99987.06;;;23.44;23.37
76592;BME280;65481;47.600;19.682;2023-04-22T15:17:22;99985.34;;;23.40;23.09
76592;BME280;65481;47.600;19.682;2023-04-22T15:22:23;99978.38;;;23.48;23.17
76592;BME280;65481;47.600;19.682;2023-04-22T15:27:25;99981.06;;;23.39;23.20
76592;BME280;65481;47.600;19.682;2023-04-22T15:32:26;99980.88;;;23.53;23.42
76592;BME280;65481;47.600;19.682;2023-04-22T15:37:26;99985.97;;;23.37;25.50
76592;BME280;65481;47.600;19.682;2023-04-22T15:42:27;99985.84;;;22.89;26.04
76592;BME280;65481;47.600;19.682;2023-04-22T15:47:27;99990.13;;;22.81;25.60
76592;BME280;65481;47.600;19.682;2023-04-22T15:52:28;99989.16;;;22.51;25.94
76592;BME280;65481;47.600;19.682;2023-04-22T15:57:29;99988.25;;;22.24;25.39
76592;BME280;65481;47.600;19.682;2023-04-22T16:02:34;99991.03;;;22.01;26.95
76592;BME280;65481;47.600;19.682;2023-04-22T16:07:34;99983.50;;;21.72;28.45
76592;BME280;65481;47.600;19.682;2023-04-22T16:12:35;99983.63;;;21.44;29.23
76592;BME280;65481;47.600;19.682;2023-04-22T16:17:36;99985.00;;;21.10;29.71
76592;BME280;65481;47.600;19.682;2023-04-22T16:22:37;99979.69;;;20.96;29.70
76592;BME280;65481;47.600;19.682;2023-04-22T16:27:37;99978.94;;;20.81;29.34
76592;BME280;65481;47.600;19.682;2023-04-22T16:32:38;99982.22;;;20.78;29.31
76592;BME280;65481;47.600;19.682;2023-04-22T16:37:39;99972.72;;;20.44;30.20
76592;BME280;65481;47.600;19.682;2023-04-22T16:42:39;99970.09;;;20.16;30.99
76592;BME280;65481;47.600;19.682;2023-04-22T16:47:40;99968.09;;;20.08;31.41
76592;BME280;65481;47.600;19.682;2023-04-22T16:52:40;99965.53;;;19.89;31.86
76592;BME280;65481;47.600;19.682;2023-04-22T16:57:41;99971.22;;;19.68;31.46
76592;BME280;65481;47.600;19.682;2023-04-22T17:02:41;99967.22;;;19.51;31.05
76592;BME280;65481;47.600;19.682;2023-04-22T17:07:42;99971.34;;;19.30;30.82
76592;BME280;65481;47.600;19.682;2023-04-22T17:12:42;99970.91;;;19.22;30.89
76592;BME280;65481;47.600;19.682;2023-04-22T17:17:43;99966.50;;;19.13;31.02
76592;BME280;65481;47.600;19.682;2023-04-22T17:22:43;99970.63;;;19.05;30.70
76592;BME280;65481;47.600;19.682;2023-04-22T17:27:44;99968.69;;;18.91;30.30
76592;BME280;65481;47.600;19.682;2023-04-22T17:32:44;99976.63;;;18.77;30.43
76592;BME280;65481;47.600;19.682;2023-04-22T17:37:45;99983.78;;;18.63;31.04
76592;BME280;65481;47.600;19.682;2023-04-22T17:42:45;99982.50;;;18.36;31.93
76592;BME280;65481;47.600;19.682;2023-04-22T17:47:46;99980.72;;;18.26;32.47
76592;BME280;65481;47.600;19.682;2023-04-22T17:52:47;99985.56;;;18.00;33.19
76592;BME280;65481;47.600;19.682;2023-04-22T17:57:48;99991.78;;;17.90;33.62
76592;BME280;65481;47.600;19.682;2023-04-22T18:02:48;100007.47;;;17.67;34.19
76592;BME280;65481;47.600;19.682;2023-04-22T18:07:49;100005.78;;;17.47;34.77
76592;BME280;65481;47.600;19.682;2023-04-22T18:12:50;100009.63;;;17.31;35.48
76592;BME280;65481;47.600;19.682;2023-04-22T18:17:50;100016.16;;;17.14;35.87
76592;BME280;65481;47.600;19.682;2023-04-22T18:22:51;100015.44;;;16.98;36.27
76592;BME280;65481;47.600;19.682;2023-04-22T18:27:51;100026.41;;;16.86;36.47
76592;BME280;65481;47.600;19.682;2023-04-22T18:32:54;100020.88;;;16.77;36.94
76592;BME280;65481;47.600;19.682;2023-04-22T18:37:55;100025.69;;;16.70;37.64
76592;BME280;65481;47.600;19.682;2023-04-22T18:42:55;100028.13;;;16.61;37.55
76592;BME280;65481;47.600;19.682;2023-04-22T18:47:56;100028.72;;;16.43;37.64
76592;BME280;65481;47.600;19.682;2023-04-22T18:52:58;100027.72;;;16.18;37.83
76592;BME280;65481;47.600;19.682;2023-04-22T18:57:58;100030.41;;;16.08;38.42
76592;BME280;65481;47.600;19.682;2023-04-22T19:02:59;100031.75;;;16.00;38.56
76592;BME280;65481;47.600;19.682;2023-04-22T19:08:00;100030.69;;;15.80;38.68
76592;BME280;65481;47.600;19.682;2023-04-22T19:13:01;100032.03;;;15.57;39.20
76592;BME280;65481;47.600;19.682;2023-04-22T19:18:02;100038.13;;;15.42;39.36
76592;BME280;65481;47.600;19.682;2023-04-22T19:23:04;100042.09;;;15.34;39.38
76592;BME280;65481;47.600;19.682;2023-04-22T19:28:05;100045.28;;;15.26;40.05
76592;BME280;65481;47.600;19.682;2023-04-22T19:33:05;100041.78;;;15.05;41.04
76592;BME280;65481;47.600;19.682;2023-04-22T19:38:07;100041.78;;;15.05;40.96
76592;BME280;65481;47.600;19.682;2023-04-22T19:43:09;100038.88;;;15.06;41.09
76592;BME280;65481;47.600;19.682;2023-04-22T19:48:10;100034.06;;;14.98;41.22
76592;BME280;65481;47.600;19.682;2023-04-22T19:53:11;100026.59;;;14.84;42.15
76592;BME280;65481;47.600;19.682;2023-04-22T19:58:13;100039.22;;;14.62;42.76
76592;BME280;65481;47.600;19.682;2023-04-22T20:03:14;100039.19;;;14.57;43.19
76592;BME280;65481;47.600;19.682;2023-04-22T20:08:17;100046.31;;;14.46;43.89
76592;BME280;65481;47.600;19.682;2023-04-22T20:13:19;100044.94;;;14.38;43.42
76592;BME280;65481;47.600;19.682;2023-04-22T20:18:20;100038.53;;;14.29;44.17
76592;BME280;65481;47.600;19.682;2023-04-22T20:23:22;100041.38;;;14.17;45.27
76592;BME280;65481;47.600;19.682;2023-04-22T20:28:52;100041.41;;;13.84;46.86
76592;BME280;65481;47.600;19.682;2023-04-22T20:33:53;100041.25;;;13.63;47.52
76592;BME280;65481;47.600;19.682;2023-04-22T20:38:54;100040.69;;;13.56;48.13
76592;BME280;65481;47.600;19.682;2023-04-22T20:43:55;100037.22;;;13.56;48.52
76592;BME280;65481;47.600;19.682;2023-04-22T20:48:56;100035.03;;;13.47;48.93
76592;BME280;65481;47.600;19.682;2023-04-22T20:53:57;100035.59;;;13.27;49.69
76592;BME280;65481;47.600;19.682;2023-04-22T20:58:57;100036.56;;;13.16;49.89
76592;BME280;65481;47.600;19.682;2023-04-22T21:03:58;100031.19;;;13.11;50.48
76592;BME280;65481;47.600;19.682;2023-04-22T21:09:00;100042.13;;;12.92;51.49
76592;BME280;65481;47.600;19.682;2023-04-22T21:14:01;100046.22;;;12.38;52.97
76592;BME280;65481;47.600;19.682;2023-04-22T21:19:04;100039.66;;;12.02;53.27
76592;BME280;65481;47.600;19.682;2023-04-22T21:24:06;100044.13;;;12.01;53.26
76592;BME280;65481;47.600;19.682;2023-04-22T21:29:08;100042.72;;;11.81;53.96
76592;BME280;65481;47.600;19.682;2023-04-22T21:34:09;100048.25;;;11.63;55.20
76592;BME280;65481;47.600;19.682;2023-04-22T21:39:09;100054.00;;;11.60;56.27
76592;BME280;65481;47.600;19.682;2023-04-22T21:44:10;100057.47;;;11.60;56.60
76592;BME280;65481;47.600;19.682;2023-04-22T21:49:11;100059.69;;;11.69;56.70
76592;BME280;65481;47.600;19.682;2023-04-22T21:54:11;100057.06;;;11.69;57.17
76592;BME280;65481;47.600;19.682;2023-04-22T21:59:12;100057.84;;;11.52;58.01
76592;BME280;65481;47.600;19.682;2023-04-22T22:04:12;100063.28;;;11.45;58.81
76592;BME280;65481;47.600;19.682;2023-04-22T22:09:13;100068.00;;;11.43;59.06
76592;BME280;65481;47.600;19.682;2023-04-22T22:14:13;100062.28;;;11.34;59.57
76592;BME280;65481;47.600;19.682;2023-04-22T22:19:14;100058.22;;;11.15;59.99
76592;BME280;65481;47.600;19.682;2023-04-22T22:24:15;100066.47;;;10.89;61.07
76592;BME280;65481;47.600;19.682;2023-04-22T22:29:15;100061.59;;;10.45;61.96
76592;BME280;65481;47.600;19.682;2023-04-22T22:34:16;100060.38;;;10.48;61.41
76592;BME280;65481;47.600;19.682;2023-04-22T22:39:16;100062.06;;;10.54;61.00
76592;BME280;65481;47.600;19.682;2023-04-22T22:44:17;100066.72;;;10.76;61.06
76592;BME280;65481;47.600;19.682;2023-04-22T22:49:17;100062.13;;;10.83;61.49
76592;BME280;65481;47.600;19.682;2023-04-22T22:54:18;100063.44;;;10.33;63.54
76592;BME280;65481;47.600;19.682;2023-04-22T22:59:18;100068.00;;;10.02;65.20
76592;BME280;65481;47.600;19.682;2023-04-22T23:04:19;100065.13;;;9.92;65.93
76592;BME280;65481;47.600;19.682;2023-04-22T23:09:20;100074.41;;;9.94;66.38
76592;BME280;65481;47.600;19.682;2023-04-22T23:14:21;100073.19;;;9.66;67.66
76592;BME280;65481;47.600;19.682;2023-04-22T23:19:22;100073.91;;;9.74;67.79
76592;BME280;65481;47.600;19.682;2023-04-22T23:24:23;100066.91;;;9.67;68.59
76592;BME280;65481;47.600;19.682;2023-04-22T23:29:24;100077.53;;;9.61;69.37
76592;BME280;65481;47.600;19.682;2023-04-22T23:34:25;100080.47;;;9.52;70.39
76592;BME280;65481;47.600;19.682;2023-04-22T23:39:25;100078.09;;;9.51;70.67
76592;BME280;65481;47.600;19.682;2023-04-22T23:44:26;100080.38;;;9.47;71.16
76592;BME280;65481;47.600;19.682;2023-04-22T23:49:27;100075.63;;;9.37;71.97
76592;BME280;65481;47.600;19.682;2023-04-22T23:54:28;100077.19;;;9.27;73.05
76592;BME280;65481;47.600;19.682;2023-04-22T23:59:29;100070.75;;;9.22;73.65
